Time;durP1;ratioP1;P1;durP2;ratioP2;P2;SDS_P1;SDS_P2;PMS_P1;PMS_P2;Temp;Humidity;BMP_temperature;BMP_pressure;BME280_temperature;BME280_humidity;BME280_pressure;Samples;Min_cycle;Max_cycle;Signal;HPM_P1;HPM_P2
2023/04/14 00:01:27;;;;;;;3.17;2.80;;;14.30;55.20;;;14.59;42.49;94023.75;5091526;28;20483;-62
2023/04/14 00:03:56;;;;;;;2.37;2.17;;;14.30;55.20;;;14.59;42.35;94029.03;5094240;28;20452;-64
2023/04/14 00:06:23;;;;;;;3.83;2.67;;;14.30;55.20;;;14.56;42.66;94035.50;5092431;28;20458;-58
2023/04/14 00:08:50;;;;;;;4.10;2.60;;;14.30;55.20;;;14.54;42.68;94026.94;5090866;28;20884;-62
2023/04/14 00:11:17;;;;;;;9.63;3.30;;;14.30;55.30;;;14.55;42.85;94033.03;5088718;28;20455;-62
2023/04/14 00:13:45;;;;;;;4.17;2.60;;;14.30;55.80;;;14.53;42.63;94036.72;5093118;28;20458;-58
2023/04/14 00:16:12;;;;;;;3.03;2.73;;;14.30;55.70;;;14.55;43.25;94022.47;5080907;28;20536;-62
2023/04/14 00:18:39;;;;;;;4.43;2.60;;;14.30;56.00;;;14.53;43.03;94020.00;5094434;28;20457;-57
2023/04/14 00:21:08;;;;;;;4.47;3.00;;;14.30;56.20;;;14.51;42.82;94019.38;5093311;28;21090;-62
2023/04/14 00:23:35;;;;;;;4.73;2.90;;;14.30;56.10;;;14.51;43.06;94025.47;5100440;28;20449;-62
2023/04/14 00:26:06;;;;;;;3.50;2.53;;;14.30;56.20;;;14.50;43.19;94010.63;5093768;28;20557;-58
2023/04/14 00:28:33;;;;;;;4.40;2.80;;;14.20;56.20;;;14.50;43.30;94015.06;5087609;28;20451;-57
2023/04/14 00:31:00;;;;;;;6.00;2.60;;;14.20;56.30;;;14.49;43.08;94016.09;5098536;28;20515;-57
2023/04/14 00:33:27;;;;;;;6.20;2.80;;;14.20;56.30;;;14.49;43.44;94016.09;5093512;28;20485;-62
2023/04/14 00:35:55;;;;;;;7.23;2.93;;;14.20;56.50;;;14.49;43.52;94024.03;5097533;28;20450;-62
2023/04/14 00:38:24;;;;;;;5.47;2.43;;;14.20;56.60;;;14.49;43.38;94024.03;5096980;28;20478;-58
2023/04/14 00:40:51;;;;;;;4.23;2.83;;;14.20;56.70;;;14.50;43.75;94020.38;5099694;28;20485;-58
2023/04/14 00:43:19;;;;;;;6.10;2.80;;;14.20;57.00;;;14.51;43.52;94016.72;5091968;28;20462;-57
2023/04/14 00:45:47;;;;;;;3.00;2.70;;;14.20;56.80;;;14.50;43.90;94009.78;5096223;28;20496;-58
2023/04/14 00:48:15;;;;;;;6.33;3.73;;;14.30;57.20;;;14.50;43.54;94015.06;5092278;28;21034;-61
2023/04/14 00:50:42;;;;;;;4.60;4.10;;;14.30;57.10;;;14.51;43.90;94011.44;5094771;28;20445;-62
2023/04/14 00:53:10;;;;;;;3.63;3.30;;;14.30;57.30;;;14.51;44.04;94014.88;5094656;28;20503;-58
2023/04/14 00:55:39;;;;;;;4.23;3.83;;;14.20;57.40;;;14.52;44.12;94007.78;5088313;28;20576;-56
2023/04/14 00:58:06;;;;;;;4.37;2.73;;;14.30;57.40;;;14.52;44.03;94002.50;5091026;28;20478;-58
2023/04/14 01:00:35;;;;;;;4.20;3.80;;;14.30;57.50;;;14.51;44.19;94000.84;5095130;28;20505;-57
2023/04/14 01:03:02;;;;;;;4.53;3.93;;;14.30;57.50;;;14.49;44.03;94003.69;5095050;28;20493;-61
2023/04/14 01:05:29;;;;;;;4.87;4.37;;;14.20;57.40;;;14.48;44.39;94010.00;5089055;28;20453;-58
2023/04/14 01:07:56;;;;;;;4.37;3.93;;;14.20;57.80;;;14.45;44.82;94002.44;5093313;28;20482;-63
2023/04/14 01:10:24;;;;;;;5.47;4.33;;;14.20;58.00;;;14.45;44.36;93998.94;5094852;28;20481;-58
2023/04/14 01:13:06;;;;;;;9.43;3.70;;;14.20;58.00;;;14.44;44.79;93992.03;5093599;28;20485;-63
2023/04/14 01:15:38;;;;;;;7.70;4.40;;;14.20;58.10;;;14.42;44.62;93994.88;5092143;28;21025;-62
2023/04/14 01:18:10;;;;;;;7.37;4.10;;;14.20;58.90;;;14.41;44.80;94005.63;5094985;28;20913;-57
2023/04/14 01:20:40;;;;;;;7.63;4.10;;;14.20;58.20;;;14.40;44.72;94010.09;5096331;28;20573;-57
2023/04/14 01:23:08;;;;;;;7.20;5.07;;;14.10;58.20;;;14.38;44.89;94001.53;5095534;28;20470;-62
2023/04/14 01:26:26;;;;;;;6.83;4.47;;;14.10;58.60;;;14.37;45.61;94002.50;5090942;28;20450;-57
2023/04/14 01:29:34;;;;;;;9.70;5.50;;;14.10;58.60;;;14.35;45.64;93996.59;5088338;28;20450;-58
2023/04/14 01:32:04;;;;;;;10.17;4.93;;;14.10;59.10;;;14.33;45.27;93998.63;5089173;28;20474;-61
2023/04/14 01:34:35;;;;;;;8.10;4.60;;;14.10;59.20;;;14.31;44.98;94001.44;5094965;28;20442;-62
2023/04/14 01:37:06;;;;;;;4.03;3.20;;;14.10;58.80;;;14.29;44.96;94000.78;5094347;28;20470;-63
2023/04/14 01:39:36;;;;;;;6.87;3.50;;;14.10;59.00;;;14.29;45.42;94003.44;5094890;28;20480;-63
2023/04/14 01:42:07;;;;;;;4.30;3.90;;;14.00;58.90;;;14.28;45.35;94004.47;5089068;28;20481;-60
2023/04/14 01:44:34;;;;;;;9.60;3.97;;;14.00;59.20;;;14.26;45.64;93995.06;5093968;28;20453;-57
2023/04/14 01:47:05;;;;;;;6.47;3.67;;;14.00;59.30;;;14.24;45.29;93989.94;5091827;28;21290;-61
2023/04/14 01:49:34;;;;;;;4.70;3.50;;;14.00;59.20;;;14.22;45.18;93991.97;5094715;28;20435;-63
2023/04/14 01:52:02;;;;;;;4.80;3.97;;;14.00;59.00;;;14.22;45.17;93989.31;5094245;28;20907;-62
2023/04/14 01:54:29;;;;;;;3.43;3.07;;;14.00;59.20;;;14.22;45.52;93983.19;5087831;28;20480;-60
2023/04/14 01:56:57;;;;;;;5.43;3.53;;;14.00;59.40;;;14.20;45.50;93983.38;5090129;28;20473;-62
2023/04/14 01:59:24;;;;;;;4.40;3.40;;;14.00;59.30;;;14.19;45.38;93984.41;5090557;28;20880;-63
2023/04/14 02:01:51;;;;;;;4.80;3.70;;;14.00;59.20;;;14.19;45.61;93989.69;5094145;28;20466;-58
2023/04/14 02:04:21;;;;;;;3.30;3.00;;;14.00;59.30;;;14.20;45.46;93993.16;5092902;28;20454;-58
2023/04/14 02:06:49;;;;;;;5.30;3.00;;;14.00;59.60;;;14.18;45.59;93995.97;5095647;28;20480;-58
2023/04/14 02:09:16;;;;;;;3.00;2.80;;;14.00;59.50;;;14.17;45.89;93999.63;5091328;28;20461;-56
2023/04/14 02:11:43;;;;;;;3.00;2.70;;;13.90;59.70;;;14.16;45.70;93996.16;5094453;28;21070;-61
2023/04/14 02:14:11;;;;;;;3.57;3.33;;;13.90;59.90;;;14.13;45.75;93993.88;5095403;28;20453;-60
2023/04/14 02:16:38;;;;;;;3.33;3.07;;;13.90;59.90;;;14.13;45.63;93999.16;5090793;28;20469;-58
2023/04/14 02:19:05;;;;;;;3.60;3.07;;;13.90;59.60;;;14.13;45.59;94008.94;5093347;28;20446;-61
2023/04/14 02:21:34;;;;;;;4.17;3.10;;;13.90;59.80;;;14.13;45.83;93999.16;5091938;28;20494;-62
2023/04/14 02:24:02;;;;;;;6.20;3.20;;;13.90;60.00;;;14.11;45.57;93989.78;5097085;28;20453;-55
2023/04/14 02:26:32;;;;;;;5.93;3.67;;;13.90;60.20;;;14.13;45.72;93990.44;5093450;28;20470;-58
2023/04/14 02:29:05;;;;;;;5.47;3.00;;;13.90;59.80;;;14.12;45.54;93999.34;5086122;28;20471;-60
2023/04/14 02:31:32;;;;;;;4.60;2.73;;;13.80;59.80;;;14.12;45.93;93992.22;5088445;28;20476;-57
2023/04/14 02:33:59;;;;;;;3.93;2.97;;;13.90;60.10;;;14.12;45.78;93999.34;5094408;28;20576;-63
2023/04/14 02:36:31;;;;;;;8.20;2.93;;;13.90;60.20;;;14.12;45.87;93994.06;5095227;28;20477;-57
2023/04/14 02:39:04;;;;;;;5.03;3.47;;;13.90;60.30;;;14.10;45.93;93983.66;5093255;28;20495;-57
2023/04/14 02:41:31;;;;;;;3.53;3.00;;;13.90;60.20;;;14.12;45.85;93986.94;5091943;28;20494;-62
2023/04/14 02:44:04;;;;;;;8.33;3.00;;;13.90;60.20;;;14.11;46.25;93982.69;5093294;28;20462;-61
2023/04/14 02:46:35;;;;;;;7.50;2.80;;;13.90;60.20;;;14.11;45.89;93979.19;5089901;28;20990;-57
2023/04/14 02:49:04;;;;;;;12.03;2.63;;;13.90;60.20;;;14.09;45.84;93973.28;5094250;28;20998;-56
2023/04/14 02:51:33;;;;;;;8.47;3.30;;;13.90;60.20;;;14.09;46.36;93976.72;5095243;28;20513;-57
2023/04/14 02:54:01;;;;;;;11.87;3.60;;;13.80;60.80;;;14.10;46.28;93972.28;5090561;28;20953;-57
2023/04/14 02:56:29;;;;;;;5.73;3.40;;;13.80;60.60;;;14.08;45.76;93977.75;5087319;28;20495;-58
2023/04/14 02:58:56;;;;;;;4.13;3.60;;;13.90;60.20;;;14.07;46.42;93970.00;5093850;28;20956;-61
2023/04/14 03:01:24;;;;;;;12.73;3.13;;;13.80;61.10;;;14.06;46.63;93973.66;5091713;28;20579;-58
2023/04/14 03:03:52;;;;;;;9.80;3.37;;;13.80;61.40;;;14.04;47.13;93957.97;5093747;28;20444;-60
2023/04/14 03:06:19;;;;;;;3.90;3.60;;;13.80;62.00;;;14.01;46.65;93953.03;5091402;28;20855;-57
2023/04/14 03:08:46;;;;;;;3.80;3.40;;;13.80;61.50;;;13.97;46.08;93951.75;5096039;28;20509;-57
2023/04/14 03:11:15;;;;;;;6.10;3.20;;;13.80;60.90;;;13.96;46.44;93961.53;5089622;28;20460;-57
2023/04/14 03:13:42;;;;;;;9.73;3.57;;;13.70;61.20;;;13.96;46.59;93963.34;5093556;28;20454;-62
2023/04/14 03:16:10;;;;;;;9.23;3.20;;;13.70;61.70;;;13.95;46.77;93975.72;5089740;28;20458;-57
2023/04/14 03:18:37;;;;;;;11.33;5.83;;;13.70;61.80;;;13.91;46.64;93948.03;5094020;28;20607;-57
2023/04/14 03:21:05;;;;;;;7.40;4.00;;;13.70;61.70;;;13.90;46.55;93969.38;5090441;28;20511;-63
2023/04/14 03:23:32;;;;;;;11.93;7.33;;;13.70;61.70;;;13.88;46.35;93974.00;5092194;28;20476;-58
2023/04/14 03:26:00;;;;;;;7.90;4.70;;;13.70;61.70;;;13.83;46.67;93966.63;5092823;28;20852;-58
2023/04/14 03:28:30;;;;;;;7.30;4.33;;;13.60;61.50;;;13.78;46.37;93947.84;5094397;28;20542;-58
2023/04/14 03:31:00;;;;;;;11.73;6.33;;;13.60;61.70;;;13.72;46.55;93935.38;5096303;28;20445;-57
2023/04/14 03:33:28;;;;;;;5.07;3.80;;;13.50;61.50;;;13.65;46.70;93940.56;5096173;28;20517;-61
2023/04/14 03:35:56;;;;;;;6.07;3.80;;;13.50;62.40;;;13.57;47.03;93930.91;5095555;28;20752;-58
2023/04/14 03:38:25;;;;;;;7.10;3.93;;;13.40;62.20;;;13.50;47.46;93916.75;5084670;28;20467;-62
2023/04/14 03:40:53;;;;;;;8.43;4.43;;;13.30;63.20;;;13.43;47.47;93902.63;5095497;28;20500;-62
2023/04/14 03:43:21;;;;;;;13.20;3.50;;;13.30;62.90;;;13.37;47.68;93913.91;5096282;28;20528;-62
2023/04/14 03:45:50;;;;;;;7.00;3.90;;;13.20;63.40;;;13.31;47.63;93898.75;5081007;28;20461;-62
2023/04/14 03:48:19;;;;;;;6.97;4.00;;;13.10;63.60;;;13.31;48.11;93907.53;5088558;28;20855;-57
2023/04/14 03:50:50;;;;;;;6.00;4.63;;;13.10;63.80;;;13.31;48.22;93907.53;5093921;28;20461;-61
2023/04/14 03:53:18;;;;;;;5.97;4.50;;;13.10;64.50;;;13.33;48.38;93917.91;5094212;28;20844;-58
2023/04/14 03:55:46;;;;;;;4.60;3.73;;;13.10;64.70;;;13.32;48.20;93900.41;5091892;28;20461;-58
2023/04/14 03:58:14;;;;;;;4.00;3.70;;;13.10;64.40;;;13.33;48.30;93905.53;5092588;28;20474;-58
2023/04/14 04:00:41;;;;;;;6.63;3.97;;;13.10;64.60;;;13.36;48.32;93909.66;5091375;28;20516;-60
2023/04/14 04:03:10;;;;;;;7.53;3.60;;;13.10;64.60;;;13.37;48.14;93909.47;5086408;28;21249;-58
2023/04/14 04:05:39;;;;;;;5.43;4.00;;;13.10;64.90;;;13.39;48.16;93917.22;5088192;28;20908;-62
2023/04/14 04:08:06;;;;;;;8.20;4.40;;;13.20;64.90;;;13.39;48.32;93907.47;5095426;28;20528;-57
2023/04/14 04:10:34;;;;;;;7.40;3.77;;;13.10;64.70;;;13.40;48.19;93906.47;5081072;28;20464;-58
2023/04/14 04:13:01;;;;;;;6.53;5.20;;;13.20;65.10;;;13.40;48.19;93903.00;5095493;28;20473;-62
2023/04/14 04:15:29;;;;;;;8.87;5.20;;;13.20;65.00;;;13.40;48.56;93913.56;5083613;28;20456;-56
2023/04/14 04:17:56;;;;;;;5.27;4.73;;;13.20;65.30;;;13.41;48.44;93899.38;5096843;28;21061;-57
2023/04/14 04:20:25;;;;;;;21.30;13.87;;;13.20;65.50;;;13.44;48.60;93909.56;5093173;28;20493;-62
2023/04/14 04:22:53;;;;;;;12.30;10.27;;;13.20;65.80;;;13.45;48.89;93903.28;5093541;28;20473;-65
2023/04/14 04:25:20;;;;;;;18.53;9.87;;;13.20;66.10;;;13.45;49.13;93916.50;5090378;28;20838;-67
2023/04/14 04:27:48;;;;;;;6.90;6.10;;;13.20;66.10;;;13.46;48.68;93926.03;5096580;28;20473;-64
2023/04/14 04:30:15;;;;;;;13.53;4.23;;;13.30;66.20;;;13.47;48.94;93924.25;5087734;28;20463;-58
2023/04/14 04:32:42;;;;;;;5.83;4.63;;;13.30;66.20;;;13.48;48.78;93932.00;5088866;28;20503;-62
2023/04/14 04:35:10;;;;;;;17.10;4.90;;;13.20;66.20;;;13.50;48.81;93935.25;5092382;28;20467;-59
2023/04/14 04:37:39;;;;;;;9.40;5.40;;;13.30;66.20;;;13.52;48.56;93948.28;5093125;28;20508;-58
2023/04/14 04:40:08;;;;;;;12.00;5.70;;;13.30;66.20;;;13.50;48.96;93952.94;5085391;28;20476;-58
2023/04/14 04:42:40;;;;;;;4.40;4.00;;;13.30;66.60;;;13.50;48.98;93961.69;5091936;28;20899;-58
2023/04/14 04:45:09;;;;;;;7.20;4.47;;;13.30;66.20;;;13.51;48.71;93963.31;5087977;28;20453;-56
2023/04/14 04:47:36;;;;;;;9.63;6.00;;;13.30;66.60;;;13.52;49.66;93943.81;5095446;28;20503;-63
2023/04/14 04:50:03;;;;;;;5.63;4.60;;;13.30;67.60;;;13.53;48.94;93940.19;5088510;28;20545;-58
2023/04/14 04:52:31;;;;;;;7.40;5.33;;;13.30;66.90;;;13.55;48.75;93927.59;5093816;28;20501;-57
2023/04/14 04:54:59;;;;;;;7.30;5.27;;;13.30;66.80;;;13.57;48.95;93927.41;5091304;28;20459;-57
2023/04/14 04:57:27;;;;;;;7.80;4.90;;;13.40;67.10;;;13.58;48.97;93931.72;5091713;28;20515;-57
2023/04/14 04:59:54;;;;;;;10.53;4.70;;;13.30;67.00;;;13.60;48.91;93919.97;5094574;28;20517;-62
2023/04/14 05:02:21;;;;;;;7.63;4.60;;;13.40;67.10;;;13.65;49.02;93908.84;5085638;28;21331;-63
2023/04/14 05:04:49;;;;;;;7.53;4.33;;;13.40;67.20;;;13.69;49.23;93909.31;5094576;28;20767;-57
2023/04/14 05:07:16;;;;;;;12.83;4.87;;;13.40;67.50;;;13.72;49.01;93903.66;5084906;28;20475;-56
2023/04/14 05:09:44;;;;;;;10.30;5.80;;;13.50;67.50;;;13.74;48.85;93899.00;5078883;28;20460;-57
2023/04/14 05:12:12;;;;;;;8.70;5.00;;;13.50;67.00;;;13.75;48.74;93901.44;5090298;28;20478;-58
2023/04/14 05:14:40;;;;;;;19.80;5.97;;;13.50;67.00;;;13.77;48.96;93915.31;5092843;28;20457;-58
2023/04/14 05:17:07;;;;;;;13.07;4.90;;;13.50;67.20;;;13.81;48.59;93918.41;5091872;28;20472;-58
2023/04/14 05:19:34;;;;;;;11.10;5.97;;;13.60;67.60;;;13.86;49.13;93910.75;5092671;28;20446;-59
2023/04/14 05:22:02;;;;;;;15.83;7.60;;;13.60;67.70;;;13.88;48.76;93900.81;5092555;28;20493;-57
2023/04/14 05:24:29;;;;;;;8.40;6.67;;;13.60;67.30;;;13.88;49.02;93890.25;5082983;28;20832;-59
2023/04/14 05:26:56;;;;;;;10.80;7.63;;;13.60;67.70;;;13.85;48.73;93872.13;5086626;28;20515;-62
2023/04/14 05:29:25;;;;;;;15.33;8.23;;;13.70;67.30;;;13.87;48.78;93883.31;5088687;28;20449;-62
2023/04/14 05:31:52;;;;;;;15.83;7.20;;;13.60;67.40;;;13.86;48.51;93884.31;5091030;28;20465;-58
2023/04/14 05:34:20;;;;;;;14.57;6.53;;;13.60;67.30;;;13.87;48.65;93878.03;5091074;28;20469;-62
2023/04/14 05:36:47;;;;;;;11.47;6.83;;;13.60;67.50;;;13.86;48.74;93865.00;5093615;28;20504;-61
2023/04/14 05:39:15;;;;;;;17.20;6.90;;;13.70;67.40;;;13.87;48.96;93869.28;5091642;28;20501;-59
2023/04/14 05:41:42;;;;;;;9.40;5.00;;;13.60;67.70;;;13.88;48.87;93871.75;5094220;28;20486;-57
2023/04/14 05:44:10;;;;;;;17.67;6.50;;;13.70;67.20;;;13.91;48.96;93855.53;5092946;28;20457;-61
2023/04/14 05:46:38;;;;;;;12.20;8.13;;;13.70;67.80;;;13.98;48.55;93850.31;5091926;28;20553;-58
2023/04/14 05:49:06;;;;;;;9.63;5.20;;;13.70;67.10;;;14.01;48.57;93833.25;5094244;28;20457;-60
2023/04/14 05:51:33;;;;;;;12.27;5.33;;;13.80;67.00;;;14.05;48.58;93847.72;5088179;28;20858;-60
2023/04/14 05:54:00;;;;;;;10.03;5.33;;;13.80;67.80;;;14.11;48.35;93854.91;5090528;28;20502;-61
2023/04/14 05:56:28;;;;;;;8.70;5.17;;;13.90;67.40;;;14.16;48.17;93845.41;5086991;28;20494;-62
2023/04/14 05:58:55;;;;;;;8.17;5.03;;;13.90;66.80;;;14.21;48.58;93857.28;5089881;28;20443;-62
2023/04/14 06:01:22;;;;;;;10.90;4.97;;;14.00;67.10;;;14.24;48.16;93841.84;5074865;28;20493;-64
2023/04/14 06:03:51;;;;;;;6.70;4.37;;;14.00;66.90;;;14.28;48.48;93840.47;5090919;28;20443;-60
2023/04/14 06:06:19;;;;;;;10.30;5.43;;;14.00;66.90;;;14.32;47.90;93843.53;5083389;28;20463;-58
2023/04/14 06:08:46;;;;;;;5.10;4.50;;;14.10;66.90;;;14.34;47.95;93838.88;5076819;28;20484;-60
2023/04/14 06:11:14;;;;;;;7.47;4.20;;;14.10;67.00;;;14.37;47.97;93832.41;5080099;28;20867;-62
2023/04/14 06:13:41;;;;;;;8.43;4.10;;;14.20;66.90;;;14.37;47.91;93825.28;5075742;28;20458;-58
2023/04/14 06:16:09;;;;;;;8.70;4.63;;;14.10;66.90;;;14.35;47.96;93806.13;5086840;28;20457;-61
2023/04/14 06:18:36;;;;;;;16.57;5.00;;;14.10;67.00;;;14.40;47.95;93810.88;5091419;28;20502;-58
2023/04/14 06:21:05;;;;;;;9.60;5.03;;;14.20;66.70;;;14.47;47.94;93817.84;5087535;28;20486;-61
2023/04/14 06:23:33;;;;;;;19.40;5.47;;;14.20;67.10;;;14.53;48.05;93787.97;5091417;28;20454;-65
2023/04/14 06:26:00;;;;;;;7.83;4.10;;;14.30;66.70;;;14.61;47.59;93794.16;5087962;28;20524;-59
2023/04/14 06:28:27;;;;;;;10.23;5.00;;;14.40;66.40;;;14.69;47.30;93802.00;5090667;28;20595;-62
2023/04/14 06:30:55;;;;;;;8.43;4.00;;;14.40;66.20;;;14.79;47.67;93783.13;5086966;28;20471;-56
2023/04/14 06:33:22;;;;;;;7.13;4.53;;;14.50;66.20;;;14.95;47.10;93772.25;5076829;28;20493;-62
2023/04/14 06:35:50;;;;;;;6.73;3.80;;;14.70;66.20;;;15.11;47.04;93770.31;5089220;28;20534;-62
2023/04/14 06:38:19;;;;;;;8.47;4.90;;;14.80;65.60;;;15.21;46.85;93752.22;5090279;28;20489;-59
2023/04/14 06:40:46;;;;;;;7.37;3.53;;;14.90;65.30;;;15.32;46.54;93770.22;5075623;28;20459;-61
2023/04/14 06:43:14;;;;;;;4.27;3.90;;;15.00;64.90;;;15.45;46.24;93747.44;5083046;28;21013;-61
2023/04/14 06:45:41;;;;;;;9.57;7.30;;;15.10;64.50;;;15.54;46.40;93752.38;5086904;28;20799;-61
2023/04/14 06:48:10;;;;;;;21.17;13.30;;;15.20;64.90;;;15.68;46.34;93763.03;5090430;28;20472;-63
2023/04/14 06:50:37;;;;;;;13.93;3.40;;;15.40;64.60;;;15.77;45.65;93741.47;5079537;28;20903;-60
2023/04/14 06:53:06;;;;;;;8.20;4.37;;;15.50;63.90;;;15.82;45.50;93700.25;5083783;28;20856;-62
2023/04/14 06:55:35;;;;;;;5.83;3.83;;;15.60;63.60;;;15.86;45.72;93707.63;5078367;28;20534;-57
2023/04/14 06:58:03;;;;;;;6.63;4.27;;;15.60;63.60;;;15.97;45.41;93721.31;5091633;28;21301;-59
2023/04/14 07:00:30;;;;;;;4.30;3.87;;;15.70;63.50;;;16.05;45.27;93710.50;5092895;28;20461;-61
2023/04/14 07:02:57;;;;;;;7.03;4.00;;;15.70;63.50;;;16.18;45.34;93757.47;5088328;28;20497;-60
2023/04/14 07:05:25;;;;;;;6.43;3.70;;;15.90;63.20;;;16.27;44.97;93708.50;5088390;28;20535;-62
2023/04/14 07:07:52;;;;;;;7.53;3.67;;;16.00;63.00;;;16.41;44.73;93712.78;5087334;28;20531;-58
2023/04/14 07:10:19;;;;;;;10.77;3.30;;;16.10;62.50;;;16.51;44.68;93728.28;5094444;28;20461;-58
2023/04/14 07:12:48;;;;;;;12.50;3.60;;;16.20;62.70;;;16.70;44.60;93707.25;5084085;28;20548;-61
2023/04/14 07:15:16;;;;;;;8.93;3.40;;;16.30;62.40;;;16.91;44.38;93746.06;5090493;28;21187;-61
2023/04/14 07:17:43;;;;;;;9.40;4.20;;;16.50;63.00;;;17.15;44.45;93731.31;5091131;28;20962;-58
2023/04/14 07:20:11;;;;;;;5.57;3.60;;;16.80;62.30;;;17.38;44.08;93722.84;5089440;28;20829;-58
2023/04/14 07:22:39;;;;;;;6.87;3.60;;;17.00;61.80;;;17.60;43.12;93722.56;5086646;28;20517;-62
2023/04/14 07:25:07;;;;;;;6.00;4.67;;;17.20;61.00;;;17.75;43.40;93725.75;5090036;28;20480;-64
2023/04/14 07:27:35;;;;;;;4.30;3.90;;;17.30;60.40;;;17.96;43.00;93716.69;5084651;28;20468;-60
2023/04/14 07:30:04;;;;;;;8.73;4.30;;;17.60;60.00;;;18.33;41.82;93735.50;5088391;28;20488;-62
2023/04/14 07:32:31;;;;;;;7.73;3.47;;;17.90;59.60;;;18.67;42.03;93713.91;5087984;28;21024;-63
2023/04/14 07:34:59;;;;;;;4.53;3.60;;;18.20;59.00;;;18.96;41.18;93726.59;5080753;28;21032;-59
2023/04/14 07:37:26;;;;;;;4.40;3.83;;;18.50;58.70;;;19.21;41.02;93707.09;5087763;28;20549;-63
2023/04/14 07:39:54;;;;;;;7.33;2.93;;;18.80;58.00;;;19.44;40.82;93701.09;5085739;28;20459;-63
2023/04/14 07:42:21;;;;;;;4.30;3.50;;;19.00;57.70;;;19.76;40.25;93714.22;5082883;28;21041;-59
2023/04/14 07:44:48;;;;;;;5.93;3.60;;;19.30;57.30;;;20.00;39.62;93699.16;5090254;28;20920;-59
2023/04/14 07:47:17;;;;;;;7.63;4.33;;;19.60;56.30;;;20.18;39.22;93687.59;5084075;28;20491;-63
2023/04/14 07:49:44;;;;;;;4.57;3.70;;;19.80;55.90;;;20.54;38.84;93676.97;5084063;28;20501;-60
2023/04/14 07:52:11;;;;;;;8.80;3.63;;;20.10;56.00;;;21.02;38.28;93709.91;5084278;28;20559;-58
2023/04/14 07:54:39;;;;;;;13.23;3.97;;;20.50;55.00;;;21.48;37.97;93706.34;5082184;28;20451;-62
2023/04/14 07:57:08;;;;;;;6.37;3.20;;;20.90;54.60;;;22.05;36.98;93663.84;5087505;28;20854;-64
2023/04/14 07:59:37;;;;;;;6.80;3.33;;;21.50;54.20;;;22.58;36.06;93688.59;5088911;28;20479;-58
2023/04/14 08:02:04;;;;;;;13.00;3.93;;;22.00;52.70;;;22.97;35.92;93653.78;5089458;28;20492;-59
2023/04/14 08:04:33;;;;;;;19.67;8.30;;;22.50;52.30;;;23.37;34.59;93669.63;5087866;28;20455;-59
2023/04/14 08:07:01;;;;;;;10.87;3.43;;;22.90;50.60;;;23.60;34.59;93665.91;5091614;28;20469;-59
2023/04/14 08:09:28;;;;;;;12.40;3.20;;;23.20;50.10;;;23.75;34.21;93665.28;5086153;28;20449;-57
2023/04/14 08:11:56;;;;;;;8.53;2.40;;;23.50;49.50;;;23.84;33.33;93659.44;5089708;28;20477;-59
2023/04/14 08:14:24;;;;;;;8.60;3.00;;;23.60;48.60;;;23.80;33.50;93664.53;5083043;28;20460;-59
2023/04/14 08:16:51;;;;;;;14.83;3.53;;;23.60;47.90;;;23.80;33.42;93661.84;5094460;28;20469;-62
2023/04/14 08:19:19;;;;;;;5.90;3.30;;;23.70;48.00;;;23.95;33.22;93664.72;5090682;28;20458;-59
2023/04/14 08:21:48;;;;;;;6.43;2.60;;;23.80;47.70;;;24.17;32.90;93655.81;5086781;28;20492;-63
2023/04/14 08:24:15;;;;;;;10.83;3.10;;;24.00;48.10;;;24.46;33.55;93660.88;5087504;28;20468;-60
2023/04/14 08:26:42;;;;;;;10.77;3.70;;;24.20;47.90;;;24.75;31.76;93649.84;5092705;28;20469;-60
2023/04/14 08:29:10;;;;;;;8.67;3.10;;;24.50;46.60;;;24.89;31.86;93669.84;5086065;28;20442;-60
2023/04/14 08:31:37;;;;;;;9.30;3.00;;;24.70;46.30;;;24.92;31.57;93679.28;5093193;28;20477;-61
2023/04/14 08:34:04;;;;;;;19.97;3.47;;;24.80;45.90;;;24.95;31.43;93679.56;5084399;28;20452;-59
2023/04/14 08:36:31;;;;;;;9.70;3.23;;;24.80;45.80;;;25.01;32.03;93680.41;5093863;28;20465;-64
2023/04/14 08:39:00;;;;;;;12.63;3.00;;;24.80;45.70;;;25.11;31.52;93691.22;5084684;28;20470;-63
2023/04/14 08:41:28;;;;;;;15.50;3.50;;;24.90;46.10;;;25.27;31.16;93689.47;5093393;28;21311;-58
2023/04/14 08:43:55;;;;;;;5.70;3.00;;;24.90;45.70;;;25.44;31.22;93707.34;5084115;28;20447;-60
2023/04/14 08:46:23;;;;;;;7.20;3.20;;;25.10;45.30;;;25.53;30.38;93708.47;5096866;28;20453;-59
2023/04/14 08:48:50;;;;;;;7.63;3.17;;;25.10;44.50;;;25.62;30.99;93730.31;5089578;28;20450;-59
2023/04/14 08:51:25;;;;;;;11.87;3.47;;;25.20;45.00;;;25.77;30.52;93725.81;5092597;28;20453;-60
2023/04/14 08:53:52;;;;;;;9.43;3.10;;;25.30;44.60;;;25.98;30.35;93725.13;5089586;28;21030;-59
2023/04/14 08:56:20;;;;;;;12.33;3.20;;;25.60;44.40;;;26.14;30.03;93729.50;5089205;28;20865;-58
2023/04/14 08:58:48;;;;;;;15.10;3.10;;;25.70;43.80;;;26.44;29.84;93723.34;5093281;28;20507;-61
2023/04/14 09:01:15;;;;;;;23.47;3.97;;;25.90;44.00;;;26.63;28.40;93698.56;5091145;28;20860;-62
2023/04/14 09:03:43;;;;;;;27.80;3.87;;;26.10;41.00;;;26.46;25.02;93683.47;5090228;28;20478;-62
2023/04/14 09:06:10;;;;;;;25.03;4.50;;;26.10;37.20;;;26.27;26.24;93702.03;5081116;28;20451;-63
2023/04/14 09:08:38;;;;;;;20.90;3.20;;;25.90;38.60;;;25.95;25.57;93704.88;5075797;28;20842;-63
2023/04/14 09:11:06;;;;;;;27.30;3.10;;;25.60;37.90;;;25.61;26.25;93689.13;5087405;28;20433;-63
2023/04/14 09:13:35;;;;;;;22.37;4.20;;;25.30;37.90;;;25.43;26.52;93690.38;5096803;28;20848;-62
2023/04/14 09:16:02;;;;;;;28.83;4.33;;;25.10;38.50;;;25.43;27.06;93700.34;5088356;28;20451;-62
2023/04/14 09:18:30;;;;;;;19.50;3.80;;;25.00;39.30;;;25.46;26.74;93680.97;5089586;28;20460;-63
2023/04/14 09:20:57;;;;;;;52.23;5.97;;;25.00;38.70;;;25.58;26.91;93695.03;5087911;28;20535;-60
2023/04/14 09:23:25;;;;;;;29.47;4.70;;;25.10;38.90;;;25.52;25.95;93701.47;5089306;28;20486;-61
2023/04/14 09:25:52;;;;;;;22.37;3.50;;;25.00;38.60;;;25.39;26.26;93713.50;5090596;28;20810;-61
2023/04/14 09:28:19;;;;;;;21.00;3.87;;;24.90;38.10;;;25.22;25.73;93737.84;5090561;28;20484;-65
2023/04/14 09:30:48;;;;;;;21.13;3.37;;;24.80;38.00;;;25.02;26.96;93698.19;5087006;28;20450;-62
2023/04/14 09:33:19;;;;;;;24.27;4.40;;;24.70;38.80;;;25.04;27.59;93699.53;5091108;28;20473;-60
2023/04/14 09:35:48;;;;;;;15.30;2.80;;;24.60;39.70;;;25.29;26.80;93694.63;5086022;28;20455;-62
2023/04/14 09:38:15;;;;;;;15.43;4.10;;;24.70;39.50;;;25.55;27.30;93715.22;5083818;28;20933;-60
2023/04/14 09:40:43;;;;;;;18.23;3.13;;;24.90;39.80;;;25.76;27.33;93713.44;5089713;28;20463;-60
2023/04/14 09:43:24;;;;;;;17.30;4.47;;;25.20;39.80;;;25.97;27.53;93726.19;5087356;28;20584;-60
2023/04/14 09:45:53;;;;;;;20.20;3.40;;;25.40;39.80;;;26.14;26.55;93734.88;5090669;28;20918;-60
2023/04/14 09:48:20;;;;;;;37.73;3.50;;;25.50;39.10;;;26.06;26.19;93733.50;5086518;28;21026;-63
2023/04/14 09:51:02;;;;;;;18.83;3.80;;;25.60;38.50;;;25.89;26.06;93727.50;5091254;28;20962;-62
2023/04/14 09:53:30;;;;;;;19.97;4.13;;;25.40;38.00;;;25.88;26.96;93725.88;5087146;28;20486;-62
2023/04/14 09:55:58;;;;;;;38.57;4.80;;;25.40;38.70;;;25.91;26.35;93749.59;5087070;28;20453;-60
2023/04/14 09:58:29;;;;;;;112.67;9.07;;;25.40;38.60;;;26.02;26.33;93742.38;5086780;28;20475;-60
2023/04/14 10:00:58;;;;;;;42.43;3.47;;;25.40;38.40;;;26.14;26.39;93745.66;5089401;28;20497;-61
2023/04/14 10:03:37;;;;;;;50.23;6.40;;;25.60;38.50;;;26.28;26.82;93776.44;5088603;28;20946;-62
2023/04/14 10:06:08;;;;;;;62.07;5.57;;;25.70;38.60;;;26.47;26.14;93770.53;5091686;28;20442;-64
2023/04/14 10:08:37;;;;;;;42.17;5.17;;;25.90;38.50;;;26.51;25.54;93801.31;5092583;28;20473;-61
2023/04/14 10:11:18;;;;;;;31.90;3.80;;;26.00;37.80;;;26.40;25.99;93768.13;5084966;28;20464;-64
2023/04/14 10:13:46;;;;;;;15.13;2.97;;;25.90;37.90;;;26.33;26.11;93855.72;5094856;28;20985;-62
2023/04/14 10:16:15;;;;;;;30.90;3.50;;;25.90;38.20;;;26.11;26.57;93800.09;5090487;28;20458;-65
2023/04/14 10:18:43;;;;;;;26.97;4.63;;;25.70;38.10;;;25.80;25.95;93817.97;5091859;28;20452;-59
2023/04/14 10:21:10;;;;;;;43.53;4.37;;;25.50;38.10;;;25.59;26.49;93836.66;5093624;28;20449;-59
2023/04/14 10:23:38;;;;;;;17.20;3.53;;;25.20;38.50;;;25.49;27.52;93817.78;5085241;28;20549;-64